sensor_id;sensor_type;location;lat;lon;timestamp;pressure;altitude;pressure_sealevel;temperature
12007;BMP180;6062;47.294;12.182;2023-01-28T00:01:57;79715.00;;;-5.50
12007;BMP180;6062;47.294;12.182;2023-01-28T00:04:23;79724.00;;;-5.50
12007;BMP180;6062;47.294;12.182;2023-01-28T00:06:49;79716.00;;;-5.50
12007;BMP180;6062;47.294;12.182;2023-01-28T00:09:14;79713.00;;;-5.50
12007;BMP180;6062;47.294;12.182;2023-01-28T00:11:40;79708.00;;;-5.50
12007;BMP180;6062;47.294;12.182;2023-01-28T00:14:07;79711.00;;;-5.50
12007;BMP180;6062;47.294;12.182;2023-01-28T00:16:32;79715.00;;;-5.40
12007;BMP180;6062;47.294;12.182;2023-01-28T00:18:58;79709.00;;;-5.40
12007;BMP180;6062;47.294;12.182;2023-01-28T00:21:24;79706.00;;;-5.40
12007;BMP180;6062;47.294;12.182;2023-01-28T00:23:53;79700.00;;;-5.40
12007;BMP180;6062;47.294;12.182;2023-01-28T00:26:20;79708.00;;;-5.40
12007;BMP180;6062;47.294;12.182;2023-01-28T00:28:47;79704.00;;;-5.40
12007;BMP180;6062;47.294;12.182;2023-01-28T00:31:24;79713.00;;;-5.40
12007;BMP180;6062;47.294;12.182;2023-01-28T00:33:52;79716.00;;;-5.30
12007;BMP180;6062;47.294;12.182;2023-01-28T00:36:22;79719.00;;;-5.30
12007;BMP180;6062;47.294;12.182;2023-01-28T00:38:56;79716.00;;;-5.30
12007;BMP180;6062;47.294;12.182;2023-01-28T00:41:26;79714.00;;;-5.30
12007;BMP180;6062;47.294;12.182;2023-01-28T00:43:52;79718.00;;;-5.30
12007;BMP180;6062;47.294;12.182;2023-01-28T00:46:20;79714.00;;;-5.30
12007;BMP180;6062;47.294;12.182;2023-01-28T00:48:46;79710.00;;;-5.30
12007;BMP180;6062;47.294;12.182;2023-01-28T00:51:15;79721.00;;;-5.20
12007;BMP180;6062;47.294;12.182;2023-01-28T00:53:42;79717.00;;;-5.20
12007;BMP180;6062;47.294;12.182;2023-01-28T00:56:13;79719.00;;;-5.20
12007;BMP180;6062;47.294;12.182;2023-01-28T00:58:39;79723.00;;;-5.20
12007;BMP180;6062;47.294;12.182;2023-01-28T01:01:19;79716.00;;;-5.20
12007;BMP180;6062;47.294;12.182;2023-01-28T01:03:45;79716.00;;;-5.20
12007;BMP180;6062;47.294;12.182;2023-01-28T01:06:14;79719.00;;;-5.30
12007;BMP180;6062;47.294;12.182;2023-01-28T01:08:40;79714.00;;;-5.30
12007;BMP180;6062;47.294;12.182;2023-01-28T01:11:09;79715.00;;;-5.20
12007;BMP180;6062;47.294;12.182;2023-01-28T01:13:36;79718.00;;;-5.30
12007;BMP180;6062;47.294;12.182;2023-01-28T01:16:12;79718.00;;;-5.30
12007;BMP180;6062;47.294;12.182;2023-01-28T01:18:40;79721.00;;;-5.30
12007;BMP180;6062;47.294;12.182;2023-01-28T01:21:27;79721.00;;;-5.30
12007;BMP180;6062;47.294;12.182;2023-01-28T01:23:53;79720.00;;;-5.30
12007;BMP180;6062;47.294;12.182;2023-01-28T01:26:19;79710.00;;;-5.30
12007;BMP180;6062;47.294;12.182;2023-01-28T01:28:45;79721.00;;;-5.30
12007;BMP180;6062;47.294;12.182;2023-01-28T01:31:17;79721.00;;;-5.30
12007;BMP180;6062;47.294;12.182;2023-01-28T01:33:46;79725.00;;;-5.30
12007;BMP180;6062;47.294;12.182;2023-01-28T01:36:14;79722.00;;;-5.30
12007;BMP180;6062;47.294;12.182;2023-01-28T01:38:40;79713.00;;;-5.30
12007;BMP180;6062;47.294;12.182;2023-01-28T01:41:08;79716.00;;;-5.20
12007;BMP180;6062;47.294;12.182;2023-01-28T01:44:02;79711.00;;;-5.20
12007;BMP180;6062;47.294;12.182;2023-01-28T01:46:39;79697.00;;;-5.20
12007;BMP180;6062;47.294;12.182;2023-01-28T01:49:17;79716.00;;;-5.20
12007;BMP180;6062;47.294;12.182;2023-01-28T01:51:46;79710.00;;;-5.20
12007;BMP180;6062;47.294;12.182;2023-01-28T01:54:15;79701.00;;;-5.20
12007;BMP180;6062;47.294;12.182;2023-01-28T01:56:46;79704.00;;;-5.20
12007;BMP180;6062;47.294;12.182;2023-01-28T01:59:27;79703.00;;;-5.20
12007;BMP180;6062;47.294;12.182;2023-01-28T02:01:54;79710.00;;;-5.20
12007;BMP180;6062;47.294;12.182;2023-01-28T02:04:34;79713.00;;;-5.20
12007;BMP180;6062;47.294;12.182;2023-01-28T02:07:02;79709.00;;;-5.20
12007;BMP180;6062;47.294;12.182;2023-01-28T02:09:34;79708.00;;;-5.20
12007;BMP180;6062;47.294;12.182;2023-01-28T02:12:18;79718.00;;;-5.30
12007;BMP180;6062;47.294;12.182;2023-01-28T02:15:08;79713.00;;;-5.30
12007;BMP180;6062;47.294;12.182;2023-01-28T02:17:36;79707.00;;;-5.20
12007;BMP180;6062;47.294;12.182;2023-01-28T02:20:06;79716.00;;;-5.20
12007;BMP180;6062;47.294;12.182;2023-01-28T02:23:10;79718.00;;;-5.30
12007;BMP180;6062;47.294;12.182;2023-01-28T02:25:58;79717.00;;;-5.30
12007;BMP180;6062;47.294;12.182;2023-01-28T02:31:00;79723.00;;;-5.30
12007;BMP180;6062;47.294;12.182;2023-01-28T02:34:01;79728.00;;;-5.40
12007;BMP180;6062;47.294;12.182;2023-01-28T02:36:50;79721.00;;;-5.40
12007;BMP180;6062;47.294;12.182;2023-01-28T02:39:26;79721.00;;;-5.40
12007;BMP180;6062;47.294;12.182;2023-01-28T02:42:09;79740.00;;;-5.40
12007;BMP180;6062;47.294;12.182;2023-01-28T02:44:35;79730.00;;;-5.40
12007;BMP180;6062;47.294;12.182;2023-01-28T02:47:01;79737.00;;;-5.40
12007;BMP180;6062;47.294;12.182;2023-01-28T02:49:51;79726.00;;;-5.40
12007;BMP180;6062;47.294;12.182;2023-01-28T02:52:48;79728.00;;;-5.40
12007;BMP180;6062;47.294;12.182;2023-01-28T03:01:23;79730.00;;;-5.50
12007;BMP180;6062;47.294;12.182;2023-01-28T03:04:19;79731.00;;;-5.50
12007;BMP180;6062;47.294;12.182;2023-01-28T03:06:53;79731.00;;;-5.50
12007;BMP180;6062;47.294;12.182;2023-01-28T03:09:22;79728.00;;;-5.60
12007;BMP180;6062;47.294;12.182;2023-01-28T03:14:55;79727.00;;;-5.60
12007;BMP180;6062;47.294;12.182;2023-01-28T03:17:45;79736.00;;;-5.60
12007;BMP180;6062;47.294;12.182;2023-01-28T03:20:47;79740.00;;;-5.60
12007;BMP180;6062;47.294;12.182;2023-01-28T03:23:47;79743.00;;;-5.60
12007;BMP180;6062;47.294;12.182;2023-01-28T03:26:40;79736.00;;;-5.60
12007;BMP180;6062;47.294;12.182;2023-01-28T03:29:30;79738.00;;;-5.60
12007;BMP180;6062;47.294;12.182;2023-01-28T03:32:16;79729.00;;;-5.60
12007;BMP180;6062;47.294;12.182;2023-01-28T03:35:02;79739.00;;;-5.50
12007;BMP180;6062;47.294;12.182;2023-01-28T03:37:48;79742.00;;;-5.50
12007;BMP180;6062;47.294;12.182;2023-01-28T03:40:13;79739.00;;;-5.50
12007;BMP180;6062;47.294;12.182;2023-01-28T03:42:39;79744.00;;;-5.50
12007;BMP180;6062;47.294;12.182;2023-01-28T03:45:06;79751.00;;;-5.50
12007;BMP180;6062;47.294;12.182;2023-01-28T03:47:32;79750.00;;;-5.40
12007;BMP180;6062;47.294;12.182;2023-01-28T03:49:58;79746.00;;;-5.40
12007;BMP180;6062;47.294;12.182;2023-01-28T03:52:31;79749.00;;;-5.40
12007;BMP180;6062;47.294;12.182;2023-01-28T03:54:57;79755.00;;;-5.40
12007;BMP180;6062;47.294;12.182;2023-01-28T03:57:26;79745.00;;;-5.40
12007;BMP180;6062;47.294;12.182;2023-01-28T03:59:53;79747.00;;;-5.40
12007;BMP180;6062;47.294;12.182;2023-01-28T04:02:20;79737.00;;;-5.30
12007;BMP180;6062;47.294;12.182;2023-01-28T04:04:47;79750.00;;;-5.30
12007;BMP180;6062;47.294;12.182;2023-01-28T04:07:13;79751.00;;;-5.30
12007;BMP180;6062;47.294;12.182;2023-01-28T04:09:41;79756.00;;;-5.30
12007;BMP180;6062;47.294;12.182;2023-01-28T04:12:08;79752.00;;;-5.30
12007;BMP180;6062;47.294;12.182;2023-01-28T04:14:34;79756.00;;;-5.30
12007;BMP180;6062;47.294;12.182;2023-01-28T04:17:00;79756.00;;;-5.30
12007;BMP180;6062;47.294;12.182;2023-01-28T04:19:27;79764.00;;;-5.30
12007;BMP180;6062;47.294;12.182;2023-01-28T04:21:53;79763.00;;;-5.30
12007;BMP180;6062;47.294;12.182;2023-01-28T04:24:20;79775.00;;;-5.30
12007;BMP180;6062;47.294;12.182;2023-01-28T04:26:46;79767.00;;;-5.30
12007;BMP180;6062;47.294;12.182;2023-01-28T04:29:12;79776.00;;;-5.30
12007;BMP180;6062;47.294;12.182;2023-01-28T04:31:38;79769.00;;;-5.30
12007;BMP180;6062;47.294;12.182;2023-01-28T04:34:03;79764.00;;;-5.40
12007;BMP180;6062;47.294;12.182;2023-01-28T04:36:29;79760.00;;;-5.40
12007;BMP180;6062;47.294;12.182;2023-01-28T04:38:55;79766.00;;;-5.40
12007;BMP180;6062;47.294;12.182;2023-01-28T04:41:20;79768.00;;;-5.40
12007;BMP180;6062;47.294;12.182;2023-01-28T04:43:46;79773.00;;;-5.40
12007;BMP180;6062;47.294;12.182;2023-01-28T04:46:14;79770.00;;;-5.30
12007;BMP180;6062;47.294;12.182;2023-01-28T04:48:41;79771.00;;;-5.30
12007;BMP180;6062;47.294;12.182;2023-01-28T04:51:07;79768.00;;;-5.30
12007;BMP180;6062;47.294;12.182;2023-01-28T04:53:33;79770.00;;;-5.30
12007;BMP180;6062;47.294;12.182;2023-01-28T04:55:58;79777.00;;;-5.20
12007;BMP180;6062;47.294;12.182;2023-01-28T04:58:24;79779.00;;;-5.20
12007;BMP180;6062;47.294;12.182;2023-01-28T05:00:58;79774.00;;;-5.20
12007;BMP180;6062;47.294;12.182;2023-01-28T05:03:24;79774.00;;;-5.20
12007;BMP180;6062;47.294;12.182;2023-01-28T05:05:50;79774.00;;;-5.20
12007;BMP180;6062;47.294;12.182;2023-01-28T05:08:16;79771.00;;;-5.20
12007;BMP180;6062;47.294;12.182;2023-01-28T05:10:43;79785.00;;;-5.20
12007;BMP180;6062;47.294;12.182;2023-01-28T05:13:08;79797.00;;;-5.20
12007;BMP180;6062;47.294;12.182;2023-01-28T05:15:34;79771.00;;;-5.20
12007;BMP180;6062;47.294;12.182;2023-01-28T05:18:00;79780.00;;;-5.20
12007;BMP180;6062;47.294;12.182;2023-01-28T05:20:26;79782.00;;;-5.30
12007;BMP180;6062;47.294;12.182;2023-01-28T05:22:52;79775.00;;;-5.20
12007;BMP180;6062;47.294;12.182;2023-01-28T05:25:18;79779.00;;;-5.20
12007;BMP180;6062;47.294;12.182;2023-01-28T05:27:49;79785.00;;;-5.20
12007;BMP180;6062;47.294;12.182;2023-01-28T05:30:17;79781.00;;;-5.20
12007;BMP180;6062;47.294;12.182;2023-01-28T05:32:43;79790.00;;;-5.10
12007;BMP180;6062;47.294;12.182;2023-01-28T05:35:09;79777.00;;;-5.10
12007;BMP180;6062;47.294;12.182;2023-01-28T05:37:34;79791.00;;;-5.10
12007;BMP180;6062;47.294;12.182;2023-01-28T05:40:00;79774.00;;;-5.10
12007;BMP180;6062;47.294;12.182;2023-01-28T05:42:26;79784.00;;;-5.10
12007;BMP180;6062;47.294;12.182;2023-01-28T05:44:51;79774.00;;;-5.10
12007;BMP180;6062;47.294;12.182;2023-01-28T05:47:17;79786.00;;;-5.10
12007;BMP180;6062;47.294;12.182;2023-01-28T05:49:43;79793.00;;;-5.10
12007;BMP180;6062;47.294;12.182;2023-01-28T05:52:08;79792.00;;;-5.10
12007;BMP180;6062;47.294;12.182;2023-01-28T05:54:34;79796.00;;;-5.10
12007;BMP180;6062;47.294;12.182;2023-01-28T05:56:59;79793.00;;;-5.10
12007;BMP180;6062;47.294;12.182;2023-01-28T05:59:25;79797.00;;;-5.20
12007;BMP180;6062;47.294;12.182;2023-01-28T06:01:51;79801.00;;;-5.20
12007;BMP180;6062;47.294;12.182;2023-01-28T06:04:16;79797.00;;;-5.30
12007;BMP180;6062;47.294;12.182;2023-01-28T06:06:44;79801.00;;;-5.30
12007;BMP180;6062;47.294;12.182;2023-01-28T06:09:09;79804.00;;;-5.30
12007;BMP180;6062;47.294;12.182;2023-01-28T06:11:35;79811.00;;;-5.30
12007;BMP180;6062;47.294;12.182;2023-01-28T06:14:01;79818.00;;;-5.30
12007;BMP180;6062;47.294;12.182;2023-01-28T06:16:26;79797.00;;;-5.30
12007;BMP180;6062;47.294;12.182;2023-01-28T06:18:52;79817.00;;;-5.30
12007;BMP180;6062;47.294;12.182;2023-01-28T06:21:17;79814.00;;;-5.30
12007;BMP180;6062;47.294;12.182;2023-01-28T06:23:43;79806.00;;;-5.30
12007;BMP180;6062;47.294;12.182;2023-01-28T06:26:09;79819.00;;;-5.20
12007;BMP180;6062;47.294;12.182;2023-01-28T06:28:34;79830.00;;;-5.10
12007;BMP180;6062;47.294;12.182;2023-01-28T06:31:00;79838.00;;;-5.10
12007;BMP180;6062;47.294;12.182;2023-01-28T06:33:26;79840.00;;;-5.10
12007;BMP180;6062;47.294;12.182;2023-01-28T06:35:53;79844.00;;;-5.10
12007;BMP180;6062;47.294;12.182;2023-01-28T06:38:19;79824.00;;;-5.00
12007;BMP180;6062;47.294;12.182;2023-01-28T06:40:51;79830.00;;;-5.00
12007;BMP180;6062;47.294;12.182;2023-01-28T06:43:16;79832.00;;;-5.00
12007;BMP180;6062;47.294;12.182;2023-01-28T06:45:42;79845.00;;;-5.00
12007;BMP180;6062;47.294;12.182;2023-01-28T06:48:08;79849.00;;;-5.00
12007;BMP180;6062;47.294;12.182;2023-01-28T06:50:33;79851.00;;;-5.00
12007;BMP180;6062;47.294;12.182;2023-01-28T06:52:59;79847.00;;;-5.00
12007;BMP180;6062;47.294;12.182;2023-01-28T06:55:25;79850.00;;;-5.00
12007;BMP180;6062;47.294;12.182;2023-01-28T06:57:50;79847.00;;;-5.10
12007;BMP180;6062;47.294;12.182;2023-01-28T07:00:17;79858.00;;;-5.20
12007;BMP180;6062;47.294;12.182;2023-01-28T07:02:43;79863.00;;;-5.30
12007;BMP180;6062;47.294;12.182;2023-01-28T07:05:09;79839.00;;;-5.30
12007;BMP180;6062;47.294;12.182;2023-01-28T07:07:35;79855.00;;;-5.40
12007;BMP180;6062;47.294;12.182;2023-01-28T07:10:01;79855.00;;;-5.40
12007;BMP180;6062;47.294;12.182;2023-01-28T07:12:27;79862.00;;;-5.40
12007;BMP180;6062;47.294;12.182;2023-01-28T07:14:52;79866.00;;;-5.40
12007;BMP180;6062;47.294;12.182;2023-01-28T07:17:18;79860.00;;;-5.40
12007;BMP180;6062;47.294;12.182;2023-01-28T07:19:44;79855.00;;;-5.40
12007;BMP180;6062;47.294;12.182;2023-01-28T07:22:09;79852.00;;;-5.40
12007;BMP180;6062;47.294;12.182;2023-01-28T07:24:35;79853.00;;;-5.40
12007;BMP180;6062;47.294;12.182;2023-01-28T07:27:00;79866.00;;;-5.30
12007;BMP180;6062;47.294;12.182;2023-01-28T07:29:26;79864.00;;;-5.30
12007;BMP180;6062;47.294;12.182;2023-01-28T07:31:52;79878.00;;;-5.40
12007;BMP180;6062;47.294;12.182;2023-01-28T07:34:17;79868.00;;;-5.40
12007;BMP180;6062;47.294;12.182;2023-01-28T07:36:44;79869.00;;;-5.40
12007;BMP180;6062;47.294;12.182;2023-01-28T07:39:10;79878.00;;;-5.50
12007;BMP180;6062;47.294;12.182;2023-01-28T07:41:35;79882.00;;;-5.60
12007;BMP180;6062;47.294;12.182;2023-01-28T07:44:01;79872.00;;;-5.60
12007;BMP180;6062;47.294;12.182;2023-01-28T07:46:27;79877.00;;;-5.60
12007;BMP180;6062;47.294;12.182;2023-01-28T07:48:53;79878.00;;;-5.50
12007;BMP180;6062;47.294;12.182;2023-01-28T07:51:19;79881.00;;;-5.50
12007;BMP180;6062;47.294;12.182;2023-01-28T07:53:44;79877.00;;;-5.50
12007;BMP180;6062;47.294;12.182;2023-01-28T07:56:10;79895.00;;;-5.50
12007;BMP180;6062;47.294;12.182;2023-01-28T07:58:35;79899.00;;;-5.50
12007;BMP180;6062;47.294;12.182;2023-01-28T08:01:01;79890.00;;;-5.50
12007;BMP180;6062;47.294;12.182;2023-01-28T08:03:27;79906.00;;;-5.50
12007;BMP180;6062;47.294;12.182;2023-01-28T08:05:55;79899.00;;;-5.50
12007;BMP180;6062;47.294;12.182;2023-01-28T08:08:23;79900.00;;;-5.50
12007;BMP180;6062;47.294;12.182;2023-01-28T08:10:49;79897.00;;;-5.50
12007;BMP180;6062;47.294;12.182;2023-01-28T08:13:17;79910.00;;;-5.50
12007;BMP180;6062;47.294;12.182;2023-01-28T08:15:43;79907.00;;;-5.50
12007;BMP180;6062;47.294;12.182;2023-01-28T08:18:13;79906.00;;;-5.50
12007;BMP180;6062;47.294;12.182;2023-01-28T08:20:39;79918.00;;;-5.40
12007;BMP180;6062;47.294;12.182;2023-01-28T08:23:13;79924.00;;;-5.20
12007;BMP180;6062;47.294;12.182;2023-01-28T08:25:39;79926.00;;;-5.10
12007;BMP180;6062;47.294;12.182;2023-01-28T08:28:06;79936.00;;;-4.90
12007;BMP180;6062;47.294;12.182;2023-01-28T08:30:33;79940.00;;;-4.70
12007;BMP180;6062;47.294;12.182;2023-01-28T08:32:59;79935.00;;;-4.60
12007;BMP180;6062;47.294;12.182;2023-01-28T08:35:27;79937.00;;;-4.40
12007;BMP180;6062;47.294;12.182;2023-01-28T08:37:53;79935.00;;;-4.30
12007;BMP180;6062;47.294;12.182;2023-01-28T08:40:20;79935.00;;;-4.30
12007;BMP180;6062;47.294;12.182;2023-01-28T08:42:51;79939.00;;;-4.30
12007;BMP180;6062;47.294;12.182;2023-01-28T08:45:19;79948.00;;;-4.30
12007;BMP180;6062;47.294;12.182;2023-01-28T08:47:59;79942.00;;;-4.20
12007;BMP180;6062;47.294;12.182;2023-01-28T08:50:33;79935.00;;;-4.10
12007;BMP180;6062;47.294;12.182;2023-01-28T08:53:08;79941.00;;;-4.00
12007;BMP180;6062;47.294;12.182;2023-01-28T08:55:34;79931.00;;;-3.80
12007;BMP180;6062;47.294;12.182;2023-01-28T08:58:06;79934.00;;;-3.60
12007;BMP180;6062;47.294;12.182;2023-01-28T09:00:34;79936.00;;;-3.50
12007;BMP180;6062;47.294;12.182;2023-01-28T09:03:01;79935.00;;;-3.30
12007;BMP180;6062;47.294;12.182;2023-01-28T09:05:27;79940.00;;;-3.10
12007;BMP180;6062;47.294;12.182;2023-01-28T09:07:54;79950.00;;;-3.00
12007;BMP180;6062;47.294;12.182;2023-01-28T09:10:20;79935.00;;;-2.90
12007;BMP180;6062;47.294;12.182;2023-01-28T09:12:46;79926.00;;;-2.80
12007;BMP180;6062;47.294;12.182;2023-01-28T09:15:12;79935.00;;;-2.60
12007;BMP180;6062;47.294;12.182;2023-01-28T09:17:38;79952.00;;;-2.50
12007;BMP180;6062;47.294;12.182;2023-01-28T09:20:05;79950.00;;;-2.30
12007;BMP180;6062;47.294;12.182;2023-01-28T09:22:32;79934.00;;;-2.20
12007;BMP180;6062;47.294;12.182;2023-01-28T09:24:57;79951.00;;;-2.10
12007;BMP180;6062;47.294;12.182;2023-01-28T09:27:23;79941.00;;;-1.90
12007;BMP180;6062;47.294;12.182;2023-01-28T09:29:49;79944.00;;;-1.80
12007;BMP180;6062;47.294;12.182;2023-01-28T09:32:15;79949.00;;;-1.70
12007;BMP180;6062;47.294;12.182;2023-01-28T09:34:40;79945.00;;;-1.50
12007;BMP180;6062;47.294;12.182;2023-01-28T09:37:06;79944.00;;;-1.40
12007;BMP180;6062;47.294;12.182;2023-01-28T09:39:31;79945.00;;;-1.30
12007;BMP180;6062;47.294;12.182;2023-01-28T09:45:46;79954.00;;;-1.00
12007;BMP180;6062;47.294;12.182;2023-01-28T09:48:18;79939.00;;;-0.90
12007;BMP180;6062;47.294;12.182;2023-01-28T09:50:50;79949.00;;;-0.80
12007;BMP180;6062;47.294;12.182;2023-01-28T09:53:24;79952.00;;;-0.70
12007;BMP180;6062;47.294;12.182;2023-01-28T09:56:30;79972.00;;;-0.50
12007;BMP180;6062;47.294;12.182;2023-01-28T09:59:07;79961.00;;;-0.60
12007;BMP180;6062;47.294;12.182;2023-01-28T10:01:53;79958.00;;;-0.80
12007;BMP180;6062;47.294;12.182;2023-01-28T10:04:25;79960.00;;;-1.10
12007;BMP180;6062;47.294;12.182;2023-01-28T10:13:06;79956.00;;;-2.40
12007;BMP180;6062;47.294;12.182;2023-01-28T10:16:08;79954.00;;;-2.70
12007;BMP180;6062;47.294;12.182;2023-01-28T10:18:44;79959.00;;;-3.00
12007;BMP180;6062;47.294;12.182;2023-01-28T10:21:30;79965.00;;;-3.20
12007;BMP180;6062;47.294;12.182;2023-01-28T10:24:33;79956.00;;;-3.50
12007;BMP180;6062;47.294;12.182;2023-01-28T10:27:11;79956.00;;;-3.70
12007;BMP180;6062;47.294;12.182;2023-01-28T10:29:39;79953.00;;;-3.80
12007;BMP180;6062;47.294;12.182;2023-01-28T10:32:33;79956.00;;;-3.90
12007;BMP180;6062;47.294;12.182;2023-01-28T10:34:59;79969.00;;;-3.90
12007;BMP180;6062;47.294;12.182;2023-01-28T10:37:35;79966.00;;;-4.00
12007;BMP180;6062;47.294;12.182;2023-01-28T10:40:03;79969.00;;;-4.10
12007;BMP180;6062;47.294;12.182;2023-01-28T10:42:32;79962.00;;;-4.20
12007;BMP180;6062;47.294;12.182;2023-01-28T10:45:16;79967.00;;;-4.20
12007;BMP180;6062;47.294;12.182;2023-01-28T10:50:28;79959.00;;;-4.40
12007;BMP180;6062;47.294;12.182;2023-01-28T10:53:00;79960.00;;;-4.40
12007;BMP180;6062;47.294;12.182;2023-01-28T10:55:30;79953.00;;;-4.30
12007;BMP180;6062;47.294;12.182;2023-01-28T10:57:59;79960.00;;;-4.10
12007;BMP180;6062;47.294;12.182;2023-01-28T11:00:35;79968.00;;;-3.80
12007;BMP180;6062;47.294;12.182;2023-01-28T11:03:01;79967.00;;;-3.50
12007;BMP180;6062;47.294;12.182;2023-01-28T11:05:30;79963.00;;;-3.20
12007;BMP180;6062;47.294;12.182;2023-01-28T11:08:14;79961.00;;;-2.80
12007;BMP180;6062;47.294;12.182;2023-01-28T11:10:42;79959.00;;;-2.40
12007;BMP180;6062;47.294;12.182;2023-01-28T11:13:29;79958.00;;;-2.00
12007;BMP180;6062;47.294;12.182;2023-01-28T11:16:04;79958.00;;;-1.60
12007;BMP180;6062;47.294;12.182;2023-01-28T11:18:39;79967.00;;;-1.20
12007;BMP180;6062;47.294;12.182;2023-01-28T11:21:21;79962.00;;;-0.80
12007;BMP180;6062;47.294;12.182;2023-01-28T11:23:54;79960.00;;;-0.40
12007;BMP180;6062;47.294;12.182;2023-01-28T11:26:29;79957.00;;;0.10
12007;BMP180;6062;47.294;12.182;2023-01-28T11:28:57;79951.00;;;0.60
12007;BMP180;6062;47.294;12.182;2023-01-28T11:31:25;79952.00;;;1.10
12007;BMP180;6062;47.294;12.182;2023-01-28T11:34:03;79957.00;;;1.50
12007;BMP180;6062;47.294;12.182;2023-01-28T11:36:32;79957.00;;;1.80
12007;BMP180;6062;47.294;12.182;2023-01-28T11:39:23;79953.00;;;2.00
12007;BMP180;6062;47.294;12.182;2023-01-28T11:41:52;79952.00;;;2.20
12007;BMP180;6062;47.294;12.182;2023-01-28T11:44:24;79957.00;;;2.30
12007;BMP180;6062;47.294;12.182;2023-01-28T11:47:05;79963.00;;;2.50
12007;BMP180;6062;47.294;12.182;2023-01-28T11:58:22;79954.00;;;3.30
12007;BMP180;6062;47.294;12.182;2023-01-28T12:01:27;79959.00;;;3.90
12007;BMP180;6062;47.294;12.182;2023-01-28T12:04:38;79957.00;;;4.80
12007;BMP180;6062;47.294;12.182;2023-01-28T12:09:59;79951.00;;;6.20
12007;BMP180;6062;47.294;12.182;2023-01-28T12:22:29;79969.00;;;7.20
12007;BMP180;6062;47.294;12.182;2023-01-28T12:28:05;79957.00;;;7.10
12007;BMP180;6062;47.294;12.182;2023-01-28T12:36:54;79955.00;;;7.70
12007;BMP180;6062;47.294;12.182;2023-01-28T12:40:05;79962.00;;;7.80
12007;BMP180;6062;47.294;12.182;2023-01-28T12:42:56;79960.00;;;7.80
12007;BMP180;6062;47.294;12.182;2023-01-28T12:45:42;79961.00;;;7.70
12007;BMP180;6062;47.294;12.182;2023-01-28T12:48:23;79962.00;;;7.50
12007;BMP180;6062;47.294;12.182;2023-01-28T12:54:13;79959.00;;;7.00
12007;BMP180;6062;47.294;12.182;2023-01-28T12:56:46;79960.00;;;6.80
12007;BMP180;6062;47.294;12.182;2023-01-28T12:59:27;79959.00;;;6.70
12007;BMP180;6062;47.294;12.182;2023-01-28T13:10:04;79971.00;;;6.50
12007;BMP180;6062;47.294;12.182;2023-01-28T13:12:32;79965.00;;;6.40
12007;BMP180;6062;47.294;12.182;2023-01-28T13:14:59;79970.00;;;6.30
12007;BMP180;6062;47.294;12.182;2023-01-28T13:17:31;79965.00;;;6.10
12007;BMP180;6062;47.294;12.182;2023-01-28T13:19:58;79966.00;;;5.90
12007;BMP180;6062;47.294;12.182;2023-01-28T13:22:36;79969.00;;;5.80
12007;BMP180;6062;47.294;12.182;2023-01-28T13:25:22;79980.00;;;5.60
12007;BMP180;6062;47.294;12.182;2023-01-28T13:28:05;79981.00;;;5.30
12007;BMP180;6062;47.294;12.182;2023-01-28T13:30:35;79988.00;;;5.10
12007;BMP180;6062;47.294;12.182;2023-01-28T13:33:35;79993.00;;;4.90
12007;BMP180;6062;47.294;12.182;2023-01-28T13:36:38;79990.00;;;4.70
12007;BMP180;6062;47.294;12.182;2023-01-28T13:41:48;79990.00;;;4.30
12007;BMP180;6062;47.294;12.182;2023-01-28T13:44:27;79992.00;;;4.00
12007;BMP180;6062;47.294;12.182;2023-01-28T13:47:12;79989.00;;;3.50
12007;BMP180;6062;47.294;12.182;2023-01-28T13:50:00;79991.00;;;3.00
12007;BMP180;6062;47.294;12.182;2023-01-28T13:52:36;79991.00;;;2.60
12007;BMP180;6062;47.294;12.182;2023-01-28T14:00:37;80011.00;;;2.10
12007;BMP180;6062;47.294;12.182;2023-01-28T14:06:17;80010.00;;;1.90
12007;BMP180;6062;47.294;12.182;2023-01-28T14:12:22;80014.00;;;1.60
12007;BMP180;6062;47.294;12.182;2023-01-28T14:15:15;80019.00;;;1.50
12007;BMP180;6062;47.294;12.182;2023-01-28T14:17:56;80023.00;;;1.50
12007;BMP180;6062;47.294;12.182;2023-01-28T14:20:32;80024.00;;;1.30
12007;BMP180;6062;47.294;12.182;2023-01-28T14:23:05;80027.00;;;1.00
12007;BMP180;6062;47.294;12.182;2023-01-28T14:25:59;80027.00;;;0.70
12007;BMP180;6062;47.294;12.182;2023-01-28T14:28:47;80026.00;;;0.60
12007;BMP180;6062;47.294;12.182;2023-01-28T14:31:29;80032.00;;;0.50
12007;BMP180;6062;47.294;12.182;2023-01-28T14:34:10;80037.00;;;0.30
12007;BMP180;6062;47.294;12.182;2023-01-28T14:36:42;80032.00;;;0.20
12007;BMP180;6062;47.294;12.182;2023-01-28T14:39:18;80027.00;;;0.10
12007;BMP180;6062;47.294;12.182;2023-01-28T14:41:48;80029.00;;;-0.10
12007;BMP180;6062;47.294;12.182;2023-01-28T14:44:37;80032.00;;;-0.20
12007;BMP180;6062;47.294;12.182;2023-01-28T14:59:28;80034.00;;;-0.80
12007;BMP180;6062;47.294;12.182;2023-01-28T15:01:58;80042.00;;;-0.90
12007;BMP180;6062;47.294;12.182;2023-01-28T15:04:31;80037.00;;;-1.10
12007;BMP180;6062;47.294;12.182;2023-01-28T15:07:18;80040.00;;;-1.20
12007;BMP180;6062;47.294;12.182;2023-01-28T15:09:44;80043.00;;;-1.30
12007;BMP180;6062;47.294;12.182;2023-01-28T15:12:11;80043.00;;;-1.40
12007;BMP180;6062;47.294;12.182;2023-01-28T15:14:38;80041.00;;;-1.50
12007;BMP180;6062;47.294;12.182;2023-01-28T15:17:05;80045.00;;;-1.50
12007;BMP180;6062;47.294;12.182;2023-01-28T15:19:36;80047.00;;;-1.60
12007;BMP180;6062;47.294;12.182;2023-01-28T15:22:06;80040.00;;;-1.60
12007;BMP180;6062;47.294;12.182;2023-01-28T15:24:36;80046.00;;;-1.70
12007;BMP180;6062;47.294;12.182;2023-01-28T15:27:05;80038.00;;;-1.90
12007;BMP180;6062;47.294;12.182;2023-01-28T15:29:36;80043.00;;;-1.90
12007;BMP180;6062;47.294;12.182;2023-01-28T15:32:05;80047.00;;;-2.00
12007;BMP180;6062;47.294;12.182;2023-01-28T15:34:31;80054.00;;;-2.00
12007;BMP180;6062;47.294;12.182;2023-01-28T15:36:59;80043.00;;;-2.10
12007;BMP180;6062;47.294;12.182;2023-01-28T15:39:27;80060.00;;;-2.10
12007;BMP180;6062;47.294;12.182;2023-01-28T15:42:01;80068.00;;;-2.20
12007;BMP180;6062;47.294;12.182;2023-01-28T15:44:37;80071.00;;;-2.20
12007;BMP180;6062;47.294;12.182;2023-01-28T15:47:31;80073.00;;;-2.30
12007;BMP180;6062;47.294;12.182;2023-01-28T15:50:05;80071.00;;;-2.40
12007;BMP180;6062;47.294;12.182;2023-01-28T15:52:38;80087.00;;;-2.50
12007;BMP180;6062;47.294;12.182;2023-01-28T15:55:07;80078.00;;;-2.60
12007;BMP180;6062;47.294;12.182;2023-01-28T15:57:53;80092.00;;;-2.60
12007;BMP180;6062;47.294;12.182;2023-01-28T16:00:20;80078.00;;;-2.70
12007;BMP180;6062;47.294;12.182;2023-01-28T16:02:52;80094.00;;;-2.80
12007;BMP180;6062;47.294;12.182;2023-01-28T16:08:23;80090.00;;;-3.00
12007;BMP180;6062;47.294;12.182;2023-01-28T16:10:55;80100.00;;;-3.10
12007;BMP180;6062;47.294;12.182;2023-01-28T16:13:30;80103.00;;;-3.10
12007;BMP180;6062;47.294;12.182;2023-01-28T16:15:58;80102.00;;;-3.20